createdAt,value
2023-01-28T00:00:20.060Z,85.50
2023-01-28T00:02:49.554Z,85.12
2023-01-28T00:05:17.340Z,85.30
2023-01-28T00:07:46.106Z,84.93
2023-01-28T00:10:15.378Z,85.22
2023-01-28T00:12:42.978Z,84.08
2023-01-28T00:15:12.015Z,84.17
2023-01-28T00:17:41.170Z,83.73
2023-01-28T00:20:09.906Z,83.70
2023-01-28T00:22:37.460Z,84.55
2023-01-28T00:25:05.475Z,84.83
2023-01-28T00:27:32.961Z,84.47
2023-01-28T00:30:00.546Z,83.93
2023-01-28T00:32:28.580Z,82.98
2023-01-28T00:34:57.467Z,83.43
2023-01-28T00:37:24.966Z,83.40
2023-01-28T00:39:52.821Z,82.88
2023-01-28T00:42:20.299Z,83.06
2023-01-28T00:44:47.729Z,82.99
2023-01-28T00:47:15.171Z,82.63
2023-01-28T00:52:44.579Z,82.74
2023-01-28T00:55:12.373Z,83.34
2023-01-28T00:57:40.220Z,82.82
2023-01-28T01:00:08.979Z,82.48
2023-01-28T01:02:36.535Z,82.13
2023-01-28T01:05:04.442Z,81.62
2023-01-28T01:07:41.655Z,82.38
2023-01-28T01:10:12.343Z,82.03
2023-01-28T01:12:40.444Z,82.23
2023-01-28T01:15:10.306Z,82.34
2023-01-28T01:17:38.696Z,81.85
2023-01-28T01:20:07.795Z,81.62
2023-01-28T01:22:36.058Z,83.15
2023-01-28T01:25:03.924Z,83.39
2023-01-28T01:27:33.057Z,83.88
2023-01-28T01:30:00.504Z,83.08
2023-01-28T01:32:31.085Z,83.08
2023-01-28T01:34:58.661Z,83.40
2023-01-28T01:37:26.169Z,83.23
2023-01-28T01:39:53.694Z,83.44
2023-01-28T01:42:21.276Z,83.84
2023-01-28T01:45:01.681Z,83.42
2023-01-28T01:47:37.472Z,83.44
2023-01-28T01:50:12.608Z,83.48
2023-01-28T01:53:37.104Z,83.45
2023-01-28T01:56:08.161Z,84.12
2023-01-28T01:59:35.434Z,84.24
2023-01-28T02:02:06.717Z,84.69
2023-01-28T02:04:37.960Z,83.48
2023-01-28T02:07:05.641Z,83.12
2023-01-28T02:09:36.083Z,83.38
2023-01-28T02:12:07.094Z,83.61
2023-01-28T02:14:38.292Z,83.06
2023-01-28T02:17:08.376Z,83.53
2023-01-28T02:19:39.103Z,82.88
2023-01-28T02:22:55.977Z,83.55
2023-01-28T02:25:41.225Z,83.79
2023-01-28T02:28:19.386Z,84.36
2023-01-28T02:30:52.798Z,83.79
2023-01-28T02:33:25.554Z,84.38
2023-01-28T02:35:54.778Z,83.53
2023-01-28T02:38:26.662Z,83.95
2023-01-28T02:41:06.828Z,83.73
2023-01-28T02:43:37.244Z,83.22
2023-01-28T02:46:36.954Z,83.78
2023-01-28T02:49:05.110Z,84.03
2023-01-28T02:51:53.549Z,82.91
2023-01-28T02:54:28.740Z,82.29
2023-01-28T02:57:01.717Z,83.67
2023-01-28T02:59:37.032Z,84.40
2023-01-28T03:02:11.795Z,84.55
2023-01-28T03:04:44.040Z,84.36
2023-01-28T03:07:13.234Z,83.75
2023-01-28T03:09:41.004Z,83.74
2023-01-28T03:12:29.456Z,83.90
2023-01-28T03:15:19.169Z,84.03
2023-01-28T03:18:07.435Z,84.15
2023-01-28T03:20:58.223Z,83.66
2023-01-28T03:23:48.854Z,84.90
2023-01-28T03:26:34.314Z,84.45
2023-01-28T03:29:27.066Z,84.47
2023-01-28T03:32:14.063Z,84.36
2023-01-28T03:34:59.269Z,84.37
2023-01-28T03:37:28.571Z,84.35
2023-01-28T03:39:58.011Z,83.80
2023-01-28T03:42:25.595Z,82.58
2023-01-28T03:44:52.229Z,82.97
2023-01-28T03:47:22.093Z,82.46
2023-01-28T03:49:52.621Z,81.33
2023-01-28T03:52:21.868Z,82.76
2023-01-28T03:54:49.807Z,82.11
2023-01-28T03:57:17.806Z,83.39
2023-01-28T03:59:45.415Z,83.23
2023-01-28T04:02:13.879Z,83.28
2023-01-28T04:04:43.111Z,83.67
2023-01-28T04:07:11.814Z,83.78
2023-01-28T04:09:39.415Z,83.85
2023-01-28T04:12:07.683Z,83.84
2023-01-28T04:17:55.544Z,83.82
2023-01-28T04:20:25.878Z,83.63
2023-01-28T04:22:53.495Z,83.66
2023-01-28T04:25:21.054Z,83.67
2023-01-28T04:27:49.437Z,83.78
2023-01-28T04:35:43.691Z,84.79
2023-01-28T04:40:46.468Z,84.23
2023-01-28T04:43:14.624Z,83.84
2023-01-28T04:45:42.130Z,82.24
2023-01-28T04:48:09.686Z,82.51
2023-01-28T04:50:37.346Z,82.12
2023-01-28T04:53:06.451Z,82.72
2023-01-28T04:55:34.055Z,82.51
2023-01-28T04:58:01.654Z,82.95
2023-01-28T05:00:29.537Z,82.83
2023-01-28T05:02:57.202Z,83.50
2023-01-28T05:05:24.645Z,83.49
2023-01-28T05:07:52.892Z,83.36
2023-01-28T05:10:22.822Z,83.47
2023-01-28T05:12:50.372Z,83.97
2023-01-28T05:15:18.875Z,83.24
2023-01-28T05:17:46.877Z,84.03
2023-01-28T05:20:15.511Z,84.10
2023-01-28T05:22:44.023Z,83.14
2023-01-28T05:25:11.655Z,83.13
2023-01-28T05:27:40.503Z,83.37
2023-01-28T05:30:09.136Z,83.65
2023-01-28T05:32:36.704Z,83.22
2023-01-28T05:35:04.440Z,83.12
2023-01-28T05:37:31.878Z,83.68
2023-01-28T05:39:59.263Z,83.43
2023-01-28T05:42:26.642Z,83.24
2023-01-28T05:44:55.499Z,83.15
2023-01-28T05:47:22.966Z,83.00
2023-01-28T05:49:50.492Z,83.16
2023-01-28T05:52:17.916Z,83.53
2023-01-28T05:54:45.540Z,83.41
2023-01-28T05:57:13.002Z,82.16
2023-01-28T05:59:40.480Z,82.65
2023-01-28T06:02:09.378Z,82.36
2023-01-28T06:04:36.857Z,83.40
2023-01-28T06:07:04.339Z,83.08
2023-01-28T06:09:32.011Z,83.66
2023-01-28T06:11:59.517Z,83.38
2023-01-28T06:22:33.938Z,84.09
2023-01-28T06:25:01.594Z,83.33
2023-01-28T06:27:29.075Z,82.94
2023-01-28T06:29:56.524Z,83.89
2023-01-28T06:32:24.258Z,83.44
2023-01-28T06:34:52.340Z,82.36
2023-01-28T06:37:19.989Z,83.25
2023-01-28T06:39:48.932Z,83.25
2023-01-28T06:42:16.574Z,83.36
2023-01-28T06:44:44.193Z,83.24
2023-01-28T06:47:11.840Z,82.83
2023-01-28T06:49:39.227Z,83.01
2023-01-28T06:52:06.839Z,82.90
2023-01-28T06:54:34.286Z,83.48
2023-01-28T06:57:03.067Z,83.46
2023-01-28T06:59:30.534Z,83.10
2023-01-28T07:01:57.970Z,82.97
2023-01-28T07:04:25.368Z,83.25
2023-01-28T07:06:52.794Z,83.33
2023-01-28T07:09:20.191Z,82.34
2023-01-28T07:11:47.568Z,83.13
2023-01-28T07:14:16.351Z,82.52
2023-01-28T07:16:43.822Z,83.14
2023-01-28T07:19:11.262Z,83.20
2023-01-28T07:21:38.745Z,83.48
2023-01-28T07:24:06.560Z,83.36
2023-01-28T07:26:34.200Z,83.37
2023-01-28T07:29:01.768Z,83.80
2023-01-28T07:31:30.657Z,82.89
2023-01-28T07:33:58.275Z,81.55
2023-01-28T07:36:25.718Z,82.65
2023-01-28T07:38:53.168Z,83.02
2023-01-28T07:41:20.730Z,83.20
2023-01-28T07:43:48.188Z,83.37
2023-01-28T07:46:15.699Z,83.59
2023-01-28T07:48:44.952Z,82.04
2023-01-28T07:51:12.538Z,83.14
2023-01-28T07:53:40.265Z,83.15
2023-01-28T07:56:08.223Z,82.63
2023-01-28T07:58:35.748Z,82.29
2023-01-28T08:01:03.248Z,82.07
2023-01-28T08:03:32.940Z,82.43
2023-01-28T08:06:01.770Z,82.47
2023-01-28T08:08:29.236Z,82.22
2023-01-28T08:10:56.751Z,81.55
2023-01-28T08:13:24.178Z,82.64
2023-01-28T08:15:56.320Z,81.72
2023-01-28T08:18:23.924Z,82.17
2023-01-28T08:20:56.377Z,81.51
2023-01-28T08:23:26.863Z,81.64
2023-01-28T08:25:54.822Z,81.55
2023-01-28T08:28:22.853Z,81.67
2023-01-28T08:30:50.435Z,81.98
2023-01-28T08:33:19.203Z,81.27
2023-01-28T08:35:46.963Z,82.19
2023-01-28T08:38:15.339Z,81.95
2023-01-28T08:40:44.866Z,81.77
2023-01-28T08:43:12.387Z,81.67
2023-01-28T08:45:40.875Z,81.79
2023-01-28T08:48:10.780Z,81.38
2023-01-28T08:50:39.924Z,81.29
2023-01-28T08:53:09.223Z,80.85
2023-01-28T08:55:36.667Z,81.10
2023-01-28T08:58:06.255Z,80.76
2023-01-28T09:00:34.241Z,81.18
2023-01-28T09:03:03.907Z,80.59
2023-01-28T09:05:34.055Z,81.23
2023-01-28T09:08:02.878Z,82.08
2023-01-28T09:10:30.368Z,81.91
2023-01-28T09:12:57.725Z,81.93
2023-01-28T09:15:26.537Z,81.09
2023-01-28T09:17:58.854Z,81.66
2023-01-28T09:20:26.586Z,81.25
2023-01-28T09:22:54.001Z,81.12
2023-01-28T09:25:21.427Z,81.66
2023-01-28T09:27:48.831Z,80.96
2023-01-28T09:30:17.107Z,81.23
2023-01-28T09:32:46.140Z,80.98
2023-01-28T09:35:17.916Z,81.85
2023-01-28T09:37:45.411Z,81.76
2023-01-28T09:40:17.173Z,81.82
2023-01-28T09:42:57.435Z,81.36
2023-01-28T09:45:26.517Z,81.18
2023-01-28T09:47:57.250Z,81.70
2023-01-28T09:50:27.661Z,80.86
2023-01-28T09:52:57.195Z,80.33
2023-01-28T09:55:32.129Z,80.86
2023-01-28T09:58:00.660Z,81.14
2023-01-28T10:00:31.448Z,81.00
2023-01-28T10:03:13.419Z,80.32
2023-01-28T10:05:47.708Z,79.73
2023-01-28T10:08:27.806Z,79.43
2023-01-28T10:11:03.018Z,80.70
2023-01-28T10:13:39.968Z,80.31
2023-01-28T10:16:17.156Z,81.48
2023-01-28T10:18:49.347Z,80.98
2023-01-28T10:21:21.768Z,81.11
2023-01-28T10:23:57.239Z,81.36
2023-01-28T10:26:26.250Z,81.16
2023-01-28T10:28:56.569Z,81.45
2023-01-28T10:31:25.159Z,81.34
2023-01-28T10:33:54.077Z,81.95
2023-01-28T10:36:21.593Z,80.80
2023-01-28T10:38:49.100Z,81.04
2023-01-28T10:41:21.838Z,80.90
2023-01-28T10:43:50.492Z,80.91
2023-01-28T10:46:20.790Z,81.34
2023-01-28T10:48:59.168Z,81.69
2023-01-28T10:51:34.723Z,80.05
2023-01-28T10:54:02.354Z,80.35
2023-01-28T10:56:31.747Z,80.39
2023-01-28T10:59:03.548Z,79.70
2023-01-28T11:01:48.044Z,79.81
2023-01-28T11:04:24.748Z,78.85
2023-01-28T11:06:58.651Z,80.27
2023-01-28T11:09:28.004Z,80.25
2023-01-28T11:11:55.536Z,80.21
2023-01-28T11:14:25.437Z,79.39
2023-01-28T11:16:54.409Z,79.00
2023-01-28T11:19:29.853Z,80.80
2023-01-28T11:21:58.301Z,79.87
2023-01-28T11:24:28.945Z,79.00
2023-01-28T11:26:58.078Z,79.23
2023-01-28T11:29:28.592Z,80.99
2023-01-28T11:31:56.455Z,81.72
2023-01-28T11:34:29.511Z,82.61
2023-01-28T11:37:05.693Z,80.86
2023-01-28T11:39:33.198Z,80.46
2023-01-28T11:42:17.612Z,82.14
2023-01-28T11:44:45.201Z,80.21
2023-01-28T11:47:31.514Z,80.80
2023-01-28T11:50:28.244Z,80.98
2023-01-28T11:53:07.133Z,81.46
2023-01-28T11:55:49.775Z,81.15
2023-01-28T11:58:24.012Z,81.05
2023-01-28T12:01:01.959Z,81.17
2023-01-28T12:03:42.292Z,81.39
2023-01-28T12:06:27.687Z,81.05
2023-01-28T12:09:01.547Z,80.16
2023-01-28T12:11:53.887Z,81.74
2023-01-28T12:14:28.533Z,81.73
2023-01-28T12:17:04.164Z,82.10
2023-01-28T12:19:41.473Z,82.91
2023-01-28T12:22:28.570Z,81.79
2023-01-28T12:25:08.115Z,81.26
2023-01-28T12:27:45.319Z,79.63
2023-01-28T12:30:23.293Z,79.93
2023-01-28T12:33:03.225Z,78.28
2023-01-28T12:35:36.942Z,78.49
2023-01-28T12:38:16.209Z,78.42
2023-01-28T12:40:53.370Z,78.40
2023-01-28T12:43:25.242Z,77.95
2023-01-28T12:45:55.722Z,77.61
2023-01-28T12:48:27.923Z,78.62
2023-01-28T12:51:00.006Z,78.17
2023-01-28T12:53:32.996Z,79.19
2023-01-28T12:56:05.580Z,79.64
2023-01-28T12:58:40.248Z,78.39
2023-01-28T13:01:10.527Z,78.06
2023-01-28T13:03:43.213Z,79.04
2023-01-28T13:06:15.239Z,78.40
2023-01-28T13:08:44.119Z,78.43
2023-01-28T13:11:16.811Z,77.93
2023-01-28T13:13:46.470Z,77.73
2023-01-28T13:16:14.993Z,77.49
2023-01-28T13:18:45.538Z,78.29
2023-01-28T13:21:34.669Z,79.59
2023-01-28T13:24:22.657Z,78.14
2023-01-28T13:26:51.992Z,78.07
2023-01-28T13:29:31.220Z,78.33
2023-01-28T13:32:01.302Z,80.01
2023-01-28T13:34:36.067Z,79.13
2023-01-28T13:37:06.388Z,79.41
2023-01-28T13:39:36.323Z,79.31
2023-01-28T13:42:22.620Z,79.12
2023-01-28T13:44:50.277Z,78.96
2023-01-28T13:47:24.028Z,79.08
2023-01-28T13:49:56.452Z,78.68
2023-01-28T13:52:27.686Z,79.06
2023-01-28T13:55:03.106Z,78.58
2023-01-28T13:57:50.170Z,77.92
2023-01-28T14:00:26.131Z,77.71
2023-01-28T14:03:16.972Z,78.23
2023-01-28T14:06:03.709Z,78.52
2023-01-28T14:08:55.591Z,78.35
2023-01-28T14:11:40.734Z,78.72
2023-01-28T14:14:25.326Z,77.70
2023-01-28T14:16:54.131Z,77.53
2023-01-28T14:19:28.359Z,78.52
2023-01-28T14:21:56.924Z,78.20
2023-01-28T14:24:25.352Z,78.16
2023-01-28T14:26:58.672Z,78.65
2023-01-28T14:29:34.588Z,78.63
2023-01-28T14:32:06.418Z,79.20
2023-01-28T14:34:35.650Z,78.72
2023-01-28T14:37:07.756Z,78.58
2023-01-28T14:39:46.883Z,79.12
2023-01-28T14:42:20.145Z,79.28
2023-01-28T14:44:49.635Z,79.49
2023-01-28T14:47:35.710Z,79.87
2023-01-28T14:50:25.398Z,79.34
2023-01-28T14:53:21.028Z,79.53
2023-01-28T14:55:54.252Z,79.41
2023-01-28T14:58:26.050Z,79.54
2023-01-28T15:00:55.639Z,79.83
2023-01-28T15:03:25.276Z,79.74
2023-01-28T15:06:04.114Z,80.12
2023-01-28T15:08:32.631Z,80.16
2023-01-28T15:11:03.123Z,80.34
2023-01-28T15:13:35.587Z,80.24
2023-01-28T15:16:03.245Z,80.15
2023-01-28T15:18:32.505Z,80.36
2023-01-28T15:21:00.926Z,80.40
2023-01-28T15:23:33.058Z,81.10
2023-01-28T15:26:01.166Z,80.81
2023-01-28T15:28:31.030Z,81.13
2023-01-28T15:31:00.785Z,81.45
2023-01-28T15:33:28.322Z,81.33
2023-01-28T15:35:57.654Z,81.39
2023-01-28T15:38:28.572Z,81.23
2023-01-28T15:40:57.366Z,81.30
2023-01-28T15:43:27.323Z,81.26
2023-01-28T15:45:56.481Z,81.63
2023-01-28T15:48:30.386Z,81.59
2023-01-28T15:51:03.844Z,81.52
2023-01-28T15:53:35.009Z,81.69
2023-01-28T15:56:07.176Z,81.72
2023-01-28T15:58:37.159Z,82.09
2023-01-28T16:01:16.631Z,82.02
2023-01-28T16:03:47.279Z,81.54
2023-01-28T16:06:17.983Z,81.31
2023-01-28T16:08:53.520Z,81.41
2023-01-28T16:11:26.544Z,81.51
2023-01-28T16:13:55.721Z,81.63
2023-01-28T16:16:28.852Z,81.71
2023-01-28T16:18:58.312Z,81.49
2023-01-28T16:21:27.777Z,81.84
2023-01-28T16:24:01.068Z,81.63
2023-01-28T16:26:30.693Z,81.90
2023-01-28T16:28:59.226Z,81.22
2023-01-28T16:31:27.240Z,81.00
2023-01-28T16:33:54.945Z,81.65
2023-01-28T16:36:24.012Z,81.67
2023-01-28T16:38:51.555Z,81.27
2023-01-28T16:41:24.638Z,81.87
2023-01-28T16:43:52.267Z,81.13
2023-01-28T16:46:20.077Z,81.70
2023-01-28T16:48:47.803Z,81.93
2023-01-28T16:51:18.585Z,81.76
2023-01-28T16:53:49.258Z,81.40
2023-01-28T16:56:30.621Z,81.52
2023-01-28T16:59:03.744Z,82.13
2023-01-28T17:01:31.367Z,82.38
2023-01-28T17:03:59.065Z,81.88
2023-01-28T17:06:26.668Z,81.33
2023-01-28T17:08:55.679Z,81.97
2023-01-28T17:11:23.411Z,82.05
2023-01-28T17:13:51.021Z,82.09
2023-01-28T17:16:18.699Z,82.08
2023-01-28T17:18:48.722Z,82.14
2023-01-28T17:21:16.851Z,81.61
2023-01-28T17:23:44.446Z,82.65
2023-01-28T17:26:15.025Z,81.86
2023-01-28T17:28:43.638Z,82.02
2023-01-28T17:31:13.411Z,82.51
2023-01-28T17:33:43.557Z,82.32
2023-01-28T17:36:11.354Z,82.62
2023-01-28T17:38:40.002Z,82.95
2023-01-28T17:41:10.348Z,82.72
2023-01-28T17:43:39.345Z,82.81
2023-01-28T17:46:12.269Z,82.94
2023-01-28T17:48:39.881Z,82.95
2023-01-28T17:51:07.935Z,82.91
2023-01-28T17:53:35.539Z,83.19
2023-01-28T17:56:03.368Z,82.98
2023-01-28T17:58:31.003Z,82.82
2023-01-28T18:01:00.118Z,83.10
2023-01-28T18:03:27.721Z,83.43
2023-01-28T18:06:00.489Z,83.30
2023-01-28T18:08:28.196Z,83.46
2023-01-28T18:10:56.236Z,84.06
2023-01-28T18:13:23.944Z,84.51
2023-01-28T18:15:51.521Z,84.25
2023-01-28T18:18:20.583Z,84.59
2023-01-28T18:20:57.910Z,84.15
2023-01-28T18:23:25.585Z,84.56
2023-01-28T18:25:57.228Z,84.21
2023-01-28T18:28:25.287Z,84.30
2023-01-28T18:30:53.474Z,83.94
2023-01-28T18:33:25.334Z,84.00
2023-01-28T18:35:52.939Z,84.44
2023-01-28T18:38:20.774Z,83.76
2023-01-28T18:40:48.581Z,84.04
2023-01-28T18:43:16.279Z,84.23
2023-01-28T18:45:45.704Z,84.25
2023-01-28T18:48:13.300Z,84.10
2023-01-28T18:50:42.189Z,83.84
2023-01-28T18:53:09.774Z,84.00
2023-01-28T18:55:37.338Z,84.25
2023-01-28T18:58:04.922Z,84.54
2023-01-28T19:00:32.478Z,84.29
2023-01-28T19:03:00.096Z,84.82
2023-01-28T19:05:27.747Z,84.89
2023-01-28T19:07:56.745Z,86.09
2023-01-28T19:10:24.922Z,85.82
2023-01-28T19:12:53.130Z,86.81
2023-01-28T19:15:20.670Z,86.85
2023-01-28T19:17:48.404Z,86.54
2023-01-28T19:20:16.303Z,86.41
2023-01-28T19:22:44.074Z,86.48
2023-01-28T19:25:13.412Z,86.61
2023-01-28T19:27:41.377Z,86.33
2023-01-28T19:30:10.957Z,86.54
2023-01-28T19:32:39.451Z,86.76
2023-01-28T19:35:08.275Z,86.68
2023-01-28T19:37:35.769Z,86.62
2023-01-28T19:40:06.203Z,86.86
2023-01-28T19:42:35.051Z,87.22
2023-01-28T19:45:07.099Z,87.07
2023-01-28T19:47:34.727Z,86.26
2023-01-28T19:50:03.215Z,86.54
2023-01-28T19:52:31.621Z,86.12
2023-01-28T19:54:59.204Z,86.71
2023-01-28T19:57:31.772Z,86.60
2023-01-28T20:00:04.067Z,86.83
2023-01-28T20:02:31.900Z,86.69
2023-01-28T20:05:01.333Z,87.15
2023-01-28T20:07:32.526Z,86.88
2023-01-28T20:10:00.419Z,87.76
2023-01-28T20:12:28.979Z,87.48
2023-01-28T20:14:56.694Z,87.65
2023-01-28T20:17:28.629Z,87.36
2023-01-28T20:19:56.636Z,87.72
2023-01-28T20:22:24.442Z,87.46
2023-01-28T20:24:57.044Z,88.27
2023-01-28T20:27:25.085Z,87.85
2023-01-28T20:29:53.389Z,88.10
2023-01-28T20:32:23.281Z,88.10
2023-01-28T20:34:55.996Z,88.89
2023-01-28T20:37:27.285Z,88.41
2023-01-28T20:39:55.976Z,88.77
2023-01-28T20:42:24.143Z,88.37
2023-01-28T20:44:51.862Z,87.96
2023-01-28T20:47:19.346Z,87.99
2023-01-28T20:49:46.831Z,88.69
2023-01-28T20:56:04.973Z,88.89
2023-01-28T20:58:37.898Z,89.20
2023-01-28T21:04:08.500Z,89.64
2023-01-28T21:06:51.710Z,89.70
2023-01-28T21:09:26.551Z,89.54
2023-01-28T21:12:39.297Z,91.19
2023-01-28T21:15:08.183Z,91.31
2023-01-28T21:17:35.757Z,90.67
2023-01-28T21:20:04.894Z,91.29
2023-01-28T21:22:32.511Z,90.87
2023-01-28T21:25:00.049Z,90.78
2023-01-28T21:27:28.994Z,91.51
2023-01-28T21:29:56.437Z,91.53
2023-01-28T21:32:26.638Z,91.78
2023-01-28T21:34:54.952Z,91.87
2023-01-28T21:37:22.520Z,92.73
2023-01-28T21:39:50.334Z,92.39
2023-01-28T21:42:17.958Z,92.95
2023-01-28T21:44:47.163Z,92.13
2023-01-28T21:47:15.385Z,92.70
2023-01-28T21:49:42.802Z,92.03
2023-01-28T21:52:10.269Z,93.00
2023-01-28T21:54:37.645Z,92.73
2023-01-28T21:57:05.112Z,92.14
2023-01-28T21:59:32.518Z,92.68
2023-01-28T22:02:02.642Z,92.65
2023-01-28T22:04:32.525Z,92.21
2023-01-28T22:07:36.453Z,91.96
2023-01-28T22:10:04.146Z,92.04
2023-01-28T22:12:40.109Z,92.12
2023-01-28T22:15:08.785Z,92.91
2023-01-28T22:17:39.924Z,93.21
2023-01-28T22:20:09.044Z,93.11
2023-01-28T22:22:36.555Z,92.91
2023-01-28T22:25:04.305Z,92.57
2023-01-28T22:27:31.767Z,92.92
2023-01-28T22:29:59.258Z,93.44
2023-01-28T22:32:26.873Z,93.92
2023-01-28T22:34:55.780Z,94.62
2023-01-28T22:37:26.526Z,93.31
2023-01-28T22:39:56.271Z,93.47
2023-01-28T22:42:24.171Z,93.37
2023-01-28T22:44:51.601Z,93.19
2023-01-28T22:47:19.153Z,93.67
2023-01-28T22:49:46.568Z,93.58
2023-01-28T22:52:15.394Z,93.71
2023-01-28T22:54:42.994Z,93.48
2023-01-28T22:57:10.449Z,93.59
2023-01-28T22:59:40.396Z,93.41
2023-01-28T23:02:09.363Z,93.80
2023-01-28T23:04:36.877Z,93.98
2023-01-28T23:07:05.274Z,93.51
2023-01-28T23:09:34.162Z,94.04
2023-01-28T23:12:01.657Z,93.66
2023-01-28T23:14:46.593Z,94.05
2023-01-28T23:17:31.370Z,94.20
2023-01-28T23:20:16.606Z,95.00
2023-01-28T23:23:01.798Z,94.35
2023-01-28T23:25:30.554Z,94.02
2023-01-28T23:27:57.961Z,93.88
2023-01-28T23:30:25.457Z,93.86
2023-01-28T23:32:55.449Z,94.25
2023-01-28T23:35:26.001Z,94.25
2023-01-28T23:37:54.261Z,93.91
2023-01-28T23:40:24.417Z,94.72
2023-01-28T23:42:53.666Z,95.39
2023-01-28T23:45:22.010Z,96.03
2023-01-28T23:47:49.813Z,96.81
2023-01-28T23:50:18.124Z,96.28
2023-01-28T23:52:46.007Z,96.00
2023-01-28T23:55:13.707Z,96.93
2023-01-28T23:57:41.274Z,96.36
